sensor_id;sensor_type;location;lat;lon;timestamp;P1;durP1;ratioP1;P2;durP2;ratioP2
68432;SDS011;55412;51.350;17.056;2023-04-16T00:00:51;35.83;;;15.35;;
68432;SDS011;55412;51.350;17.056;2023-04-16T00:03:17;32.47;;;15.00;;
68432;SDS011;55412;51.350;17.056;2023-04-16T00:05:43;27.17;;;13.48;;
68432;SDS011;55412;51.350;17.056;2023-04-16T00:08:09;38.37;;;14.50;;
68432;SDS011;55412;51.350;17.056;2023-04-16T00:10:35;30.63;;;13.77;;
68432;SDS011;55412;51.350;17.056;2023-04-16T00:13:01;31.80;;;13.25;;
68432;SDS011;55412;51.350;17.056;2023-04-16T00:15:27;25.30;;;13.25;;
68432;SDS011;55412;51.350;17.056;2023-04-16T00:17:53;27.92;;;14.38;;
68432;SDS011;55412;51.350;17.056;2023-04-16T00:20:19;33.33;;;12.10;;
68432;SDS011;55412;51.350;17.056;2023-04-16T00:22:45;22.50;;;11.53;;
68432;SDS011;55412;51.350;17.056;2023-04-16T00:25:12;29.73;;;12.95;;
68432;SDS011;55412;51.350;17.056;2023-04-16T00:27:38;26.83;;;11.63;;
68432;SDS011;55412;51.350;17.056;2023-04-16T00:30:05;27.75;;;12.07;;
68432;SDS011;55412;51.350;17.056;2023-04-16T00:32:32;29.00;;;12.67;;
68432;SDS011;55412;51.350;17.056;2023-04-16T00:34:58;23.95;;;11.15;;
68432;SDS011;55412;51.350;17.056;2023-04-16T00:37:24;22.45;;;11.23;;
68432;SDS011;55412;51.350;17.056;2023-04-16T00:39:50;25.80;;;12.00;;
68432;SDS011;55412;51.350;17.056;2023-04-16T00:42:16;30.47;;;12.10;;
68432;SDS011;55412;51.350;17.056;2023-04-16T00:44:42;22.65;;;11.50;;
68432;SDS011;55412;51.350;17.056;2023-04-16T00:47:08;23.15;;;11.38;;
68432;SDS011;55412;51.350;17.056;2023-04-16T00:49:34;21.88;;;10.93;;
68432;SDS011;55412;51.350;17.056;2023-04-16T00:52:00;19.92;;;10.10;;
68432;SDS011;55412;51.350;17.056;2023-04-16T00:54:27;21.63;;;9.20;;
68432;SDS011;55412;51.350;17.056;2023-04-16T00:56:54;23.83;;;9.73;;
68432;SDS011;55412;51.350;17.056;2023-04-16T00:59:22;21.00;;;10.40;;
68432;SDS011;55412;51.350;17.056;2023-04-16T01:01:48;22.38;;;8.88;;
68432;SDS011;55412;51.350;17.056;2023-04-16T01:04:14;20.48;;;9.88;;
68432;SDS011;55412;51.350;17.056;2023-04-16T01:06:41;19.57;;;8.17;;
68432;SDS011;55412;51.350;17.056;2023-04-16T01:09:08;16.83;;;8.52;;
68432;SDS011;55412;51.350;17.056;2023-04-16T01:11:35;20.48;;;9.18;;
68432;SDS011;55412;51.350;17.056;2023-04-16T01:14:02;18.20;;;9.15;;
68432;SDS011;55412;51.350;17.056;2023-04-16T01:16:28;19.85;;;8.82;;
68432;SDS011;55412;51.350;17.056;2023-04-16T01:18:54;19.63;;;8.93;;
68432;SDS011;55412;51.350;17.056;2023-04-16T01:21:20;18.77;;;8.02;;
68432;SDS011;55412;51.350;17.056;2023-04-16T01:23:46;16.45;;;8.52;;
68432;SDS011;55412;51.350;17.056;2023-04-16T01:26:12;20.60;;;9.43;;
68432;SDS011;55412;51.350;17.056;2023-04-16T01:28:38;23.20;;;9.80;;
68432;SDS011;55412;51.350;17.056;2023-04-16T01:31:05;18.55;;;8.32;;
68432;SDS011;55412;51.350;17.056;2023-04-16T01:33:31;21.55;;;9.20;;
68432;SDS011;55412;51.350;17.056;2023-04-16T01:35:56;21.20;;;10.23;;
68432;SDS011;55412;51.350;17.056;2023-04-16T01:38:22;20.07;;;9.07;;
68432;SDS011;55412;51.350;17.056;2023-04-16T01:40:48;28.73;;;10.40;;
68432;SDS011;55412;51.350;17.056;2023-04-16T01:43:15;33.13;;;10.80;;
68432;SDS011;55412;51.350;17.056;2023-04-16T01:45:41;41.05;;;10.95;;
68432;SDS011;55412;51.350;17.056;2023-04-16T01:48:07;38.55;;;10.70;;
68432;SDS011;55412;51.350;17.056;2023-04-16T01:50:33;40.90;;;10.53;;
68432;SDS011;55412;51.350;17.056;2023-04-16T01:52:59;45.17;;;10.63;;
68432;SDS011;55412;51.350;17.056;2023-04-16T01:55:28;36.17;;;11.05;;
68432;SDS011;55412;51.350;17.056;2023-04-16T01:57:57;48.70;;;10.95;;
68432;SDS011;55412;51.350;17.056;2023-04-16T02:00:23;48.60;;;11.00;;
68432;SDS011;55412;51.350;17.056;2023-04-16T02:02:49;44.87;;;11.30;;
68432;SDS011;55412;51.350;17.056;2023-04-16T02:05:15;50.75;;;10.90;;
68432;SDS011;55412;51.350;17.056;2023-04-16T02:07:41;67.25;;;10.45;;
68432;SDS011;55412;51.350;17.056;2023-04-16T02:10:07;61.08;;;10.60;;
68432;SDS011;55412;51.350;17.056;2023-04-16T02:12:34;58.30;;;10.32;;
68432;SDS011;55412;51.350;17.056;2023-04-16T02:15:00;46.93;;;9.87;;
68432;SDS011;55412;51.350;17.056;2023-04-16T02:17:27;49.17;;;10.07;;
68432;SDS011;55412;51.350;17.056;2023-04-16T02:19:53;48.95;;;10.60;;
68432;SDS011;55412;51.350;17.056;2023-04-16T02:22:19;39.90;;;9.73;;
68432;SDS011;55412;51.350;17.056;2023-04-16T02:24:45;60.03;;;9.35;;
68432;SDS011;55412;51.350;17.056;2023-04-16T02:27:11;70.20;;;10.23;;
68432;SDS011;55412;51.350;17.056;2023-04-16T02:29:37;74.28;;;10.85;;
68432;SDS011;55412;51.350;17.056;2023-04-16T02:32:03;55.53;;;8.95;;
68432;SDS011;55412;51.350;17.056;2023-04-16T02:34:29;66.85;;;8.90;;
68432;SDS011;55412;51.350;17.056;2023-04-16T02:36:55;53.90;;;8.67;;
68432;SDS011;55412;51.350;17.056;2023-04-16T02:39:22;55.75;;;9.70;;
68432;SDS011;55412;51.350;17.056;2023-04-16T02:41:48;43.15;;;9.27;;
68432;SDS011;55412;51.350;17.056;2023-04-16T02:44:14;49.10;;;9.00;;
68432;SDS011;55412;51.350;17.056;2023-04-16T02:46:40;60.57;;;10.17;;
68432;SDS011;55412;51.350;17.056;2023-04-16T02:49:06;64.30;;;9.40;;
68432;SDS011;55412;51.350;17.056;2023-04-16T02:51:32;42.50;;;9.43;;
68432;SDS011;55412;51.350;17.056;2023-04-16T02:53:58;41.97;;;8.63;;
68432;SDS011;55412;51.350;17.056;2023-04-16T02:56:24;31.10;;;8.77;;
68432;SDS011;55412;51.350;17.056;2023-04-16T02:58:50;33.90;;;8.50;;
68432;SDS011;55412;51.350;17.056;2023-04-16T03:01:16;33.60;;;8.95;;
68432;SDS011;55412;51.350;17.056;2023-04-16T03:03:42;40.40;;;9.48;;
68432;SDS011;55412;51.350;17.056;2023-04-16T03:06:08;38.97;;;8.95;;
68432;SDS011;55412;51.350;17.056;2023-04-16T03:08:34;48.03;;;9.87;;
68432;SDS011;55412;51.350;17.056;2023-04-16T03:11:00;41.00;;;10.32;;
68432;SDS011;55412;51.350;17.056;2023-04-16T03:13:26;27.92;;;8.65;;
68432;SDS011;55412;51.350;17.056;2023-04-16T03:15:52;31.45;;;8.30;;
68432;SDS011;55412;51.350;17.056;2023-04-16T03:18:18;27.43;;;9.00;;
68432;SDS011;55412;51.350;17.056;2023-04-16T03:20:44;27.77;;;7.97;;
68432;SDS011;55412;51.350;17.056;2023-04-16T03:23:10;30.15;;;9.48;;
68432;SDS011;55412;51.350;17.056;2023-04-16T03:25:36;30.35;;;8.57;;
68432;SDS011;55412;51.350;17.056;2023-04-16T03:28:04;23.60;;;8.88;;
68432;SDS011;55412;51.350;17.056;2023-04-16T03:30:30;30.13;;;9.00;;
68432;SDS011;55412;51.350;17.056;2023-04-16T03:32:56;39.03;;;8.80;;
68432;SDS011;55412;51.350;17.056;2023-04-16T03:35:22;30.50;;;8.35;;
68432;SDS011;55412;51.350;17.056;2023-04-16T03:37:48;23.70;;;8.65;;
68432;SDS011;55412;51.350;17.056;2023-04-16T03:40:15;31.83;;;9.70;;
68432;SDS011;55412;51.350;17.056;2023-04-16T03:42:41;43.80;;;8.40;;
68432;SDS011;55412;51.350;17.056;2023-04-16T03:45:07;30.65;;;8.80;;
68432;SDS011;55412;51.350;17.056;2023-04-16T03:47:34;22.40;;;7.15;;
68432;SDS011;55412;51.350;17.056;2023-04-16T03:50:00;46.80;;;8.60;;
68432;SDS011;55412;51.350;17.056;2023-04-16T03:52:26;25.20;;;8.07;;
68432;SDS011;55412;51.350;17.056;2023-04-16T03:54:52;21.95;;;7.65;;
68432;SDS011;55412;51.350;17.056;2023-04-16T03:57:18;27.48;;;7.68;;
68432;SDS011;55412;51.350;17.056;2023-04-16T03:59:44;21.00;;;8.15;;
68432;SDS011;55412;51.350;17.056;2023-04-16T04:02:10;19.03;;;7.93;;
68432;SDS011;55412;51.350;17.056;2023-04-16T04:04:36;23.33;;;8.03;;
68432;SDS011;55412;51.350;17.056;2023-04-16T04:07:02;22.23;;;8.52;;
68432;SDS011;55412;51.350;17.056;2023-04-16T04:09:28;27.52;;;8.30;;
68432;SDS011;55412;51.350;17.056;2023-04-16T04:11:54;22.33;;;8.30;;
68432;SDS011;55412;51.350;17.056;2023-04-16T04:14:20;23.43;;;7.23;;
68432;SDS011;55412;51.350;17.056;2023-04-16T04:16:46;20.50;;;8.65;;
68432;SDS011;55412;51.350;17.056;2023-04-16T04:19:12;19.17;;;6.88;;
68432;SDS011;55412;51.350;17.056;2023-04-16T04:21:38;23.10;;;8.60;;
68432;SDS011;55412;51.350;17.056;2023-04-16T04:24:04;25.02;;;8.35;;
68432;SDS011;55412;51.350;17.056;2023-04-16T04:26:30;19.98;;;8.88;;
68432;SDS011;55412;51.350;17.056;2023-04-16T04:28:56;27.13;;;8.75;;
68432;SDS011;55412;51.350;17.056;2023-04-16T04:31:22;27.38;;;9.07;;
68432;SDS011;55412;51.350;17.056;2023-04-16T04:33:48;23.00;;;8.90;;
68432;SDS011;55412;51.350;17.056;2023-04-16T04:36:14;31.33;;;9.50;;
68432;SDS011;55412;51.350;17.056;2023-04-16T04:38:40;23.45;;;9.93;;
68432;SDS011;55412;51.350;17.056;2023-04-16T04:41:06;29.13;;;9.77;;
68432;SDS011;55412;51.350;17.056;2023-04-16T04:43:32;22.90;;;9.67;;
68432;SDS011;55412;51.350;17.056;2023-04-16T04:45:58;32.28;;;10.57;;
68432;SDS011;55412;51.350;17.056;2023-04-16T04:48:24;23.63;;;8.82;;
68432;SDS011;55412;51.350;17.056;2023-04-16T04:50:51;27.70;;;9.32;;
68432;SDS011;55412;51.350;17.056;2023-04-16T04:53:18;26.30;;;10.17;;
68432;SDS011;55412;51.350;17.056;2023-04-16T04:55:44;34.65;;;9.38;;
68432;SDS011;55412;51.350;17.056;2023-04-16T04:58:10;35.83;;;8.65;;
68432;SDS011;55412;51.350;17.056;2023-04-16T05:00:36;25.38;;;7.97;;
68432;SDS011;55412;51.350;17.056;2023-04-16T05:03:03;30.63;;;8.43;;
68432;SDS011;55412;51.350;17.056;2023-04-16T05:05:32;49.50;;;8.97;;
68432;SDS011;55412;51.350;17.056;2023-04-16T05:07:58;25.08;;;7.25;;
68432;SDS011;55412;51.350;17.056;2023-04-16T05:10:25;52.42;;;7.97;;
68432;SDS011;55412;51.350;17.056;2023-04-16T05:12:52;27.17;;;7.20;;
68432;SDS011;55412;51.350;17.056;2023-04-16T05:15:18;33.33;;;6.63;;
68432;SDS011;55412;51.350;17.056;2023-04-16T05:17:44;28.47;;;6.87;;
68432;SDS011;55412;51.350;17.056;2023-04-16T05:20:10;40.50;;;7.80;;
68432;SDS011;55412;51.350;17.056;2023-04-16T05:22:36;40.17;;;7.70;;
68432;SDS011;55412;51.350;17.056;2023-04-16T05:25:02;27.25;;;7.85;;
68432;SDS011;55412;51.350;17.056;2023-04-16T05:27:29;32.40;;;8.45;;
68432;SDS011;55412;51.350;17.056;2023-04-16T05:29:55;31.93;;;8.27;;
68432;SDS011;55412;51.350;17.056;2023-04-16T05:32:21;34.50;;;7.18;;
68432;SDS011;55412;51.350;17.056;2023-04-16T05:34:50;46.08;;;6.88;;
68432;SDS011;55412;51.350;17.056;2023-04-16T05:37:16;34.47;;;6.38;;
68432;SDS011;55412;51.350;17.056;2023-04-16T05:39:42;25.63;;;5.70;;
68432;SDS011;55412;51.350;17.056;2023-04-16T05:42:08;19.60;;;6.15;;
68432;SDS011;55412;51.350;17.056;2023-04-16T05:44:34;33.55;;;6.18;;
68432;SDS011;55412;51.350;17.056;2023-04-16T05:46:59;27.63;;;5.70;;
68432;SDS011;55412;51.350;17.056;2023-04-16T05:49:25;24.43;;;5.60;;
68432;SDS011;55412;51.350;17.056;2023-04-16T05:51:51;21.45;;;5.88;;
68432;SDS011;55412;51.350;17.056;2023-04-16T05:54:17;27.65;;;4.90;;
68432;SDS011;55412;51.350;17.056;2023-04-16T05:56:43;29.65;;;5.13;;
68432;SDS011;55412;51.350;17.056;2023-04-16T05:59:09;21.43;;;5.20;;
68432;SDS011;55412;51.350;17.056;2023-04-16T06:01:35;31.60;;;4.47;;
68432;SDS011;55412;51.350;17.056;2023-04-16T06:04:01;19.40;;;3.25;;
68432;SDS011;55412;51.350;17.056;2023-04-16T06:06:27;26.20;;;3.90;;
68432;SDS011;55412;51.350;17.056;2023-04-16T06:08:53;17.50;;;3.77;;
68432;SDS011;55412;51.350;17.056;2023-04-16T06:11:19;9.63;;;3.87;;
68432;SDS011;55412;51.350;17.056;2023-04-16T06:13:46;22.35;;;5.32;;
68432;SDS011;55412;51.350;17.056;2023-04-16T06:16:12;13.57;;;5.10;;
68432;SDS011;55412;51.350;17.056;2023-04-16T06:18:38;25.38;;;5.45;;
68432;SDS011;55412;51.350;17.056;2023-04-16T06:21:04;25.43;;;5.47;;
68432;SDS011;55412;51.350;17.056;2023-04-16T06:23:30;12.73;;;4.60;;
68432;SDS011;55412;51.350;17.056;2023-04-16T06:25:56;13.57;;;4.97;;
68432;SDS011;55412;51.350;17.056;2023-04-16T06:28:22;20.45;;;4.90;;
68432;SDS011;55412;51.350;17.056;2023-04-16T06:30:48;13.27;;;4.72;;
68432;SDS011;55412;51.350;17.056;2023-04-16T06:33:14;22.55;;;5.55;;
68432;SDS011;55412;51.350;17.056;2023-04-16T06:35:41;14.93;;;4.77;;
68432;SDS011;55412;51.350;17.056;2023-04-16T06:38:07;18.70;;;5.60;;
68432;SDS011;55412;51.350;17.056;2023-04-16T06:40:33;14.30;;;4.90;;
68432;SDS011;55412;51.350;17.056;2023-04-16T06:43:01;16.58;;;5.20;;
68432;SDS011;55412;51.350;17.056;2023-04-16T06:45:27;15.00;;;5.35;;
68432;SDS011;55412;51.350;17.056;2023-04-16T06:47:53;16.87;;;4.77;;
68432;SDS011;55412;51.350;17.056;2023-04-16T06:50:19;22.00;;;5.03;;
68432;SDS011;55412;51.350;17.056;2023-04-16T06:52:46;19.13;;;4.90;;
68432;SDS011;55412;51.350;17.056;2023-04-16T06:55:12;23.40;;;4.60;;
68432;SDS011;55412;51.350;17.056;2023-04-16T06:57:38;19.10;;;4.37;;
68432;SDS011;55412;51.350;17.056;2023-04-16T07:00:05;17.80;;;5.32;;
68432;SDS011;55412;51.350;17.056;2023-04-16T07:02:32;17.48;;;4.60;;
68432;SDS011;55412;51.350;17.056;2023-04-16T07:04:58;26.42;;;5.10;;
68432;SDS011;55412;51.350;17.056;2023-04-16T07:07:25;24.08;;;4.82;;
68432;SDS011;55412;51.350;17.056;2023-04-16T07:09:51;18.73;;;4.87;;
68432;SDS011;55412;51.350;17.056;2023-04-16T07:12:17;19.58;;;5.35;;
68432;SDS011;55412;51.350;17.056;2023-04-16T07:14:45;24.67;;;6.10;;
68432;SDS011;55412;51.350;17.056;2023-04-16T07:17:11;14.02;;;4.95;;
68432;SDS011;55412;51.350;17.056;2023-04-16T07:19:37;14.87;;;5.63;;
68432;SDS011;55412;51.350;17.056;2023-04-16T07:22:03;12.65;;;5.85;;
68432;SDS011;55412;51.350;17.056;2023-04-16T07:24:29;14.38;;;5.63;;
68432;SDS011;55412;51.350;17.056;2023-04-16T07:26:56;19.10;;;5.75;;
68432;SDS011;55412;51.350;17.056;2023-04-16T07:29:22;17.40;;;6.10;;
68432;SDS011;55412;51.350;17.056;2023-04-16T07:31:48;14.67;;;5.50;;
68432;SDS011;55412;51.350;17.056;2023-04-16T07:34:15;12.70;;;4.55;;
68432;SDS011;55412;51.350;17.056;2023-04-16T07:36:41;14.73;;;5.75;;
68432;SDS011;55412;51.350;17.056;2023-04-16T07:39:07;15.57;;;5.30;;
68432;SDS011;55412;51.350;17.056;2023-04-16T07:41:35;15.70;;;7.22;;
68432;SDS011;55412;51.350;17.056;2023-04-16T07:44:02;15.07;;;5.80;;
68432;SDS011;55412;51.350;17.056;2023-04-16T07:46:28;16.15;;;6.63;;
68432;SDS011;55412;51.350;17.056;2023-04-16T07:48:54;12.90;;;5.70;;
68432;SDS011;55412;51.350;17.056;2023-04-16T07:51:20;20.80;;;8.98;;
68432;SDS011;55412;51.350;17.056;2023-04-16T07:53:47;13.07;;;5.95;;
68432;SDS011;55412;51.350;17.056;2023-04-16T07:56:13;11.13;;;5.97;;
68432;SDS011;55412;51.350;17.056;2023-04-16T07:58:39;16.50;;;7.38;;
68432;SDS011;55412;51.350;17.056;2023-04-16T08:01:05;17.35;;;6.95;;
68432;SDS011;55412;51.350;17.056;2023-04-16T08:03:31;13.68;;;6.78;;
68432;SDS011;55412;51.350;17.056;2023-04-16T08:05:57;15.20;;;6.73;;
68432;SDS011;55412;51.350;17.056;2023-04-16T08:08:23;13.68;;;6.13;;
68432;SDS011;55412;51.350;17.056;2023-04-16T08:10:49;15.10;;;6.70;;
68432;SDS011;55412;51.350;17.056;2023-04-16T08:13:20;13.15;;;6.18;;
68432;SDS011;55412;51.350;17.056;2023-04-16T08:15:48;14.48;;;6.40;;
68432;SDS011;55412;51.350;17.056;2023-04-16T08:18:14;12.67;;;6.17;;
68432;SDS011;55412;51.350;17.056;2023-04-16T08:20:40;15.38;;;6.38;;
68432;SDS011;55412;51.350;17.056;2023-04-16T08:23:07;12.15;;;6.10;;
68432;SDS011;55412;51.350;17.056;2023-04-16T08:25:33;12.50;;;5.97;;
68432;SDS011;55412;51.350;17.056;2023-04-16T08:28:00;14.32;;;6.70;;
68432;SDS011;55412;51.350;17.056;2023-04-16T08:30:26;13.20;;;6.90;;
68432;SDS011;55412;51.350;17.056;2023-04-16T08:32:52;22.67;;;11.77;;
68432;SDS011;55412;51.350;17.056;2023-04-16T08:35:19;15.05;;;7.28;;
68432;SDS011;55412;51.350;17.056;2023-04-16T08:37:45;15.23;;;7.00;;
68432;SDS011;55412;51.350;17.056;2023-04-16T08:40:11;22.38;;;11.20;;
68432;SDS011;55412;51.350;17.056;2023-04-16T08:42:53;17.07;;;7.93;;
68432;SDS011;55412;51.350;17.056;2023-04-16T08:45:22;24.83;;;11.48;;
68432;SDS011;55412;51.350;17.056;2023-04-16T08:47:51;16.25;;;8.52;;
68432;SDS011;55412;51.350;17.056;2023-04-16T08:50:27;13.07;;;6.20;;
68432;SDS011;55412;51.350;17.056;2023-04-16T08:52:58;14.57;;;7.20;;
68432;SDS011;55412;51.350;17.056;2023-04-16T08:55:38;14.03;;;6.13;;
68432;SDS011;55412;51.350;17.056;2023-04-16T08:58:13;14.48;;;6.90;;
68432;SDS011;55412;51.350;17.056;2023-04-16T09:00:43;13.30;;;6.72;;
68432;SDS011;55412;51.350;17.056;2023-04-16T09:03:11;11.27;;;5.82;;
68432;SDS011;55412;51.350;17.056;2023-04-16T09:05:37;15.48;;;6.82;;
68432;SDS011;55412;51.350;17.056;2023-04-16T09:08:04;11.97;;;6.07;;
68432;SDS011;55412;51.350;17.056;2023-04-16T09:10:31;12.77;;;6.35;;
68432;SDS011;55412;51.350;17.056;2023-04-16T09:12:58;18.08;;;7.07;;
68432;SDS011;55412;51.350;17.056;2023-04-16T09:15:24;14.40;;;7.50;;
68432;SDS011;55412;51.350;17.056;2023-04-16T09:17:51;13.93;;;7.07;;
68432;SDS011;55412;51.350;17.056;2023-04-16T09:20:18;13.77;;;6.90;;
68432;SDS011;55412;51.350;17.056;2023-04-16T09:22:45;11.68;;;6.05;;
68432;SDS011;55412;51.350;17.056;2023-04-16T09:25:11;15.55;;;7.72;;
68432;SDS011;55412;51.350;17.056;2023-04-16T09:27:37;13.45;;;6.72;;
68432;SDS011;55412;51.350;17.056;2023-04-16T09:30:22;16.92;;;8.85;;
68432;SDS011;55412;51.350;17.056;2023-04-16T09:32:51;12.40;;;6.20;;
68432;SDS011;55412;51.350;17.056;2023-04-16T09:35:43;13.23;;;6.80;;
68432;SDS011;55412;51.350;17.056;2023-04-16T09:38:17;17.60;;;6.03;;
68432;SDS011;55412;51.350;17.056;2023-04-16T09:40:44;11.90;;;6.18;;
68432;SDS011;55412;51.350;17.056;2023-04-16T09:43:14;10.13;;;5.53;;
68432;SDS011;55412;51.350;17.056;2023-04-16T09:45:52;13.27;;;6.53;;
68432;SDS011;55412;51.350;17.056;2023-04-16T09:48:29;12.82;;;6.50;;
68432;SDS011;55412;51.350;17.056;2023-04-16T09:50:57;11.05;;;5.25;;
68432;SDS011;55412;51.350;17.056;2023-04-16T09:53:25;12.85;;;6.53;;
68432;SDS011;55412;51.350;17.056;2023-04-16T09:56:00;14.15;;;7.10;;
68432;SDS011;55412;51.350;17.056;2023-04-16T09:58:29;11.23;;;5.40;;
68432;SDS011;55412;51.350;17.056;2023-04-16T10:01:02;10.10;;;5.68;;
68432;SDS011;55412;51.350;17.056;2023-04-16T10:03:32;12.13;;;6.10;;
68432;SDS011;55412;51.350;17.056;2023-04-16T10:06:06;10.65;;;5.93;;
68432;SDS011;55412;51.350;17.056;2023-04-16T10:08:47;14.80;;;6.28;;
68432;SDS011;55412;51.350;17.056;2023-04-16T10:11:15;10.13;;;5.60;;
68432;SDS011;55412;51.350;17.056;2023-04-16T10:13:43;8.90;;;4.60;;
68432;SDS011;55412;51.350;17.056;2023-04-16T10:16:09;9.98;;;4.10;;
68432;SDS011;55412;51.350;17.056;2023-04-16T10:18:36;9.63;;;4.75;;
68432;SDS011;55412;51.350;17.056;2023-04-16T10:21:05;10.68;;;5.68;;
68432;SDS011;55412;51.350;17.056;2023-04-16T10:23:32;9.53;;;4.43;;
68432;SDS011;55412;51.350;17.056;2023-04-16T10:26:00;9.00;;;4.15;;
68432;SDS011;55412;51.350;17.056;2023-04-16T10:28:26;9.18;;;4.78;;
68432;SDS011;55412;51.350;17.056;2023-04-16T10:30:53;9.75;;;4.07;;
68432;SDS011;55412;51.350;17.056;2023-04-16T10:33:22;7.57;;;4.07;;
68432;SDS011;55412;51.350;17.056;2023-04-16T10:36:06;8.63;;;3.90;;
68432;SDS011;55412;51.350;17.056;2023-04-16T10:38:34;6.63;;;3.15;;
68432;SDS011;55412;51.350;17.056;2023-04-16T10:41:05;9.43;;;3.20;;
68432;SDS011;55412;51.350;17.056;2023-04-16T10:43:35;8.82;;;4.10;;
68432;SDS011;55412;51.350;17.056;2023-04-16T10:49:02;7.10;;;2.50;;
68432;SDS011;55412;51.350;17.056;2023-04-16T10:51:53;4.07;;;1.05;;
68432;SDS011;55412;51.350;17.056;2023-04-16T10:54:36;6.13;;;2.53;;
68432;SDS011;55412;51.350;17.056;2023-04-16T10:57:04;5.85;;;2.80;;
68432;SDS011;55412;51.350;17.056;2023-04-16T10:59:34;5.03;;;1.85;;
68432;SDS011;55412;51.350;17.056;2023-04-16T11:02:14;5.23;;;1.20;;
68432;SDS011;55412;51.350;17.056;2023-04-16T11:04:42;4.72;;;1.83;;
68432;SDS011;55412;51.350;17.056;2023-04-16T11:12:33;4.53;;;1.73;;
68432;SDS011;55412;51.350;17.056;2023-04-16T11:15:08;5.67;;;2.43;;
68432;SDS011;55412;51.350;17.056;2023-04-16T11:22:50;5.43;;;1.98;;
68432;SDS011;55412;51.350;17.056;2023-04-16T11:25:28;5.47;;;1.77;;
68432;SDS011;55412;51.350;17.056;2023-04-16T11:27:55;4.97;;;1.43;;
68432;SDS011;55412;51.350;17.056;2023-04-16T11:30:29;5.97;;;2.13;;
68432;SDS011;55412;51.350;17.056;2023-04-16T11:32:58;5.57;;;2.08;;
68432;SDS011;55412;51.350;17.056;2023-04-16T11:35:32;4.78;;;1.50;;
68432;SDS011;55412;51.350;17.056;2023-04-16T11:37:58;5.15;;;1.63;;
68432;SDS011;55412;51.350;17.056;2023-04-16T11:40:27;5.33;;;2.00;;
68432;SDS011;55412;51.350;17.056;2023-04-16T11:42:55;6.63;;;2.10;;
68432;SDS011;55412;51.350;17.056;2023-04-16T11:45:27;6.03;;;2.47;;
68432;SDS011;55412;51.350;17.056;2023-04-16T11:47:53;7.18;;;1.88;;
68432;SDS011;55412;51.350;17.056;2023-04-16T11:50:24;9.57;;;2.08;;
68432;SDS011;55412;51.350;17.056;2023-04-16T11:52:56;5.87;;;1.63;;
68432;SDS011;55412;51.350;17.056;2023-04-16T11:55:29;8.63;;;1.90;;
68432;SDS011;55412;51.350;17.056;2023-04-16T11:57:55;3.63;;;1.70;;
68432;SDS011;55412;51.350;17.056;2023-04-16T12:00:21;4.22;;;1.33;;
68432;SDS011;55412;51.350;17.056;2023-04-16T12:02:51;3.45;;;0.98;;
68432;SDS011;55412;51.350;17.056;2023-04-16T12:08:05;4.80;;;1.40;;
68432;SDS011;55412;51.350;17.056;2023-04-16T12:10:34;3.47;;;0.85;;
68432;SDS011;55412;51.350;17.056;2023-04-16T12:13:19;3.15;;;1.10;;
68432;SDS011;55412;51.350;17.056;2023-04-16T12:15:46;2.53;;;0.63;;
68432;SDS011;55412;51.350;17.056;2023-04-16T12:18:18;4.40;;;1.53;;
68432;SDS011;55412;51.350;17.056;2023-04-16T12:20:47;4.68;;;0.98;;
68432;SDS011;55412;51.350;17.056;2023-04-16T12:23:30;4.30;;;1.35;;
68432;SDS011;55412;51.350;17.056;2023-04-16T12:25:58;3.22;;;0.90;;
68432;SDS011;55412;51.350;17.056;2023-04-16T12:28:34;4.55;;;1.10;;
68432;SDS011;55412;51.350;17.056;2023-04-16T12:31:04;5.10;;;1.30;;
68432;SDS011;55412;51.350;17.056;2023-04-16T12:33:31;5.28;;;1.45;;
68432;SDS011;55412;51.350;17.056;2023-04-16T12:35:57;8.10;;;1.80;;
68432;SDS011;55412;51.350;17.056;2023-04-16T12:38:23;6.72;;;1.77;;
68432;SDS011;55412;51.350;17.056;2023-04-16T12:40:50;3.55;;;1.02;;
68432;SDS011;55412;51.350;17.056;2023-04-16T12:43:16;4.63;;;1.27;;
68432;SDS011;55412;51.350;17.056;2023-04-16T12:45:43;3.90;;;1.10;;
68432;SDS011;55412;51.350;17.056;2023-04-16T12:48:09;3.83;;;1.35;;
68432;SDS011;55412;51.350;17.056;2023-04-16T12:50:35;3.60;;;1.17;;
68432;SDS011;55412;51.350;17.056;2023-04-16T12:53:03;3.92;;;1.20;;
68432;SDS011;55412;51.350;17.056;2023-04-16T12:55:29;3.50;;;0.60;;
68432;SDS011;55412;51.350;17.056;2023-04-16T12:57:56;3.97;;;1.58;;
68432;SDS011;55412;51.350;17.056;2023-04-16T13:00:22;12.32;;;1.60;;
68432;SDS011;55412;51.350;17.056;2023-04-16T13:02:48;4.13;;;1.38;;
68432;SDS011;55412;51.350;17.056;2023-04-16T13:05:14;3.38;;;1.48;;
68432;SDS011;55412;51.350;17.056;2023-04-16T13:07:43;4.07;;;1.50;;
68432;SDS011;55412;51.350;17.056;2023-04-16T13:10:09;3.95;;;1.30;;
68432;SDS011;55412;51.350;17.056;2023-04-16T13:12:36;3.75;;;1.10;;
68432;SDS011;55412;51.350;17.056;2023-04-16T13:15:03;4.13;;;1.33;;
68432;SDS011;55412;51.350;17.056;2023-04-16T13:17:29;6.97;;;1.60;;
68432;SDS011;55412;51.350;17.056;2023-04-16T13:19:55;7.93;;;1.10;;
68432;SDS011;55412;51.350;17.056;2023-04-16T13:22:21;4.38;;;1.60;;
68432;SDS011;55412;51.350;17.056;2023-04-16T13:24:48;6.25;;;1.63;;
68432;SDS011;55412;51.350;17.056;2023-04-16T13:27:14;5.80;;;1.33;;
68432;SDS011;55412;51.350;17.056;2023-04-16T13:29:40;4.45;;;1.60;;
68432;SDS011;55412;51.350;17.056;2023-04-16T13:32:07;5.07;;;1.07;;
68432;SDS011;55412;51.350;17.056;2023-04-16T13:34:33;5.75;;;1.45;;
68432;SDS011;55412;51.350;17.056;2023-04-16T13:36:59;4.32;;;1.60;;
68432;SDS011;55412;51.350;17.056;2023-04-16T13:39:25;4.90;;;1.80;;
68432;SDS011;55412;51.350;17.056;2023-04-16T13:41:51;4.13;;;1.60;;
68432;SDS011;55412;51.350;17.056;2023-04-16T13:44:17;5.07;;;1.50;;
68432;SDS011;55412;51.350;17.056;2023-04-16T13:46:43;4.65;;;1.58;;
68432;SDS011;55412;51.350;17.056;2023-04-16T13:49:11;6.30;;;1.10;;
68432;SDS011;55412;51.350;17.056;2023-04-16T13:51:38;4.68;;;1.25;;
68432;SDS011;55412;51.350;17.056;2023-04-16T13:54:08;3.33;;;1.10;;
68432;SDS011;55412;51.350;17.056;2023-04-16T13:56:34;3.73;;;1.40;;
68432;SDS011;55412;51.350;17.056;2023-04-16T13:59:00;4.20;;;1.50;;
68432;SDS011;55412;51.350;17.056;2023-04-16T14:01:26;3.78;;;1.35;;
68432;SDS011;55412;51.350;17.056;2023-04-16T14:03:53;4.03;;;1.17;;
68432;SDS011;55412;51.350;17.056;2023-04-16T14:06:19;3.95;;;1.13;;
68432;SDS011;55412;51.350;17.056;2023-04-16T14:08:45;3.63;;;0.83;;
68432;SDS011;55412;51.350;17.056;2023-04-16T14:11:11;4.55;;;1.40;;
68432;SDS011;55412;51.350;17.056;2023-04-16T14:13:37;4.10;;;1.08;;
68432;SDS011;55412;51.350;17.056;2023-04-16T14:16:03;4.75;;;1.27;;
68432;SDS011;55412;51.350;17.056;2023-04-16T14:18:30;5.60;;;1.40;;
68432;SDS011;55412;51.350;17.056;2023-04-16T14:20:56;5.20;;;1.40;;
68432;SDS011;55412;51.350;17.056;2023-04-16T14:23:22;3.92;;;1.15;;
68432;SDS011;55412;51.350;17.056;2023-04-16T14:25:48;4.20;;;1.25;;
68432;SDS011;55412;51.350;17.056;2023-04-16T14:28:14;4.18;;;1.58;;
68432;SDS011;55412;51.350;17.056;2023-04-16T14:30:41;3.27;;;1.00;;
68432;SDS011;55412;51.350;17.056;2023-04-16T14:33:07;6.70;;;1.23;;
68432;SDS011;55412;51.350;17.056;2023-04-16T14:35:33;3.72;;;1.38;;
68432;SDS011;55412;51.350;17.056;2023-04-16T14:38:00;4.82;;;1.23;;
68432;SDS011;55412;51.350;17.056;2023-04-16T14:40:26;9.88;;;1.50;;